Time;durP1;ratioP1;P1;durP2;ratioP2;P2;SDS_P1;SDS_P2;PMS_P1;PMS_P2;Temp;Humidity;BMP_temperature;BMP_pressure;BME280_temperature;BME280_humidity;BME280_pressure;Samples;Min_cycle;Max_cycle;Signal;HPM_P1;HPM_P2
2023/09/01 00:00:03;;;;;;;6.03;3.15;;;;;;;;;;5014195;28;20604;-73
2023/09/01 00:02:31;;;;;;;4.15;3.00;;;;;;;;;;4996118;28;20207;-72
2023/09/01 00:04:58;;;;;;;5.93;2.60;;;;;;;;;;5009217;28;20211;-72
2023/09/01 00:07:26;;;;;;;5.72;2.97;;;;;;;;;;5004517;28;20203;-74
2023/09/01 00:09:53;;;;;;;3.80;3.03;;;;;;;;;;5027511;28;20199;-72
2023/09/01 00:12:20;;;;;;;7.18;3.03;;;;;;;;;;5005174;28;20218;-73
2023/09/01 00:14:48;;;;;;;4.03;2.55;;;;;;;;;;5007284;28;20206;-76
2023/09/01 00:17:16;;;;;;;4.30;2.92;;;;;;;;;;5011872;28;20234;-73
2023/09/01 00:19:43;;;;;;;3.10;2.80;;;;;;;;;;5012449;28;20203;-74
2023/09/01 00:22:10;;;;;;;4.72;2.55;;;;;;;;;;5008455;28;20202;-72
2023/09/01 00:24:38;;;;;;;5.00;3.13;;;;;;;;;;5016011;28;20285;-74
2023/09/01 00:27:05;;;;;;;4.43;2.80;;;;;;;;;;5014432;28;20214;-73
2023/09/01 00:29:34;;;;;;;5.30;3.20;;;;;;;;;;5009207;28;20212;-74
2023/09/01 00:32:02;;;;;;;6.13;3.35;;;;;;;;;;5016260;28;20304;-73
2023/09/01 00:34:31;;;;;;;4.97;3.13;;;;;;;;;;5004378;28;20208;-74
2023/09/01 00:36:58;;;;;;;3.30;3.00;;;;;;;;;;5013586;28;20219;-74
2023/09/01 00:39:26;;;;;;;5.22;3.13;;;;;;;;;;5003026;28;22937;-74
2023/09/01 00:41:53;;;;;;;4.30;2.80;;;;;;;;;;5017560;28;20219;-74
2023/09/01 00:44:21;;;;;;;5.82;2.92;;;;;;;;;;5009991;28;20207;-73
2023/09/01 00:46:48;;;;;;;6.45;3.53;;;;;;;;;;5016787;28;20229;-75
2023/09/01 00:49:18;;;;;;;3.30;3.00;;;;;;;;;;5013431;28;20215;-74
2023/09/01 00:51:47;;;;;;;4.60;2.42;;;;;;;;;;5014286;28;20250;-75
2023/09/01 00:54:15;;;;;;;4.78;3.05;;;;;;;;;;5019437;28;20269;-75
2023/09/01 00:56:42;;;;;;;4.68;3.10;;;;;;;;;;5022619;28;20223;-74
2023/09/01 00:59:10;;;;;;;4.80;3.10;;;;;;;;;;5021227;28;20214;-74
2023/09/01 01:01:38;;;;;;;3.97;3.10;;;;;;;;;;5009563;28;20219;-73
2023/09/01 01:04:07;;;;;;;4.45;3.22;;;;;;;;;;5012037;28;20646;-74
2023/09/01 01:06:43;;;;;;;4.55;3.13;;;;;;;;;;5008045;28;20199;-74
2023/09/01 01:09:14;;;;;;;7.63;3.22;;;;;;;;;;5009362;28;20207;-72
2023/09/01 01:11:44;;;;;;;7.05;2.90;;;;;;;;;;5007651;28;20222;-73
2023/09/01 01:14:15;;;;;;;5.78;2.80;;;;;;;;;;5015727;28;20212;-75
2023/09/01 01:16:42;;;;;;;5.03;3.05;;;;;;;;;;5010075;28;20216;-74
2023/09/01 01:19:32;;;;;;;6.28;3.20;;;;;;;;;;5001070;28;20637;-74
2023/09/01 01:22:00;;;;;;;4.05;3.20;;;;;;;;;;5012556;28;20219;-75
2023/09/01 01:24:27;;;;;;;5.47;2.83;;;;;;;;;;5007949;28;20210;-75
2023/09/01 01:26:55;;;;;;;4.85;3.10;;;;;;;;;;5015168;28;20208;-73
2023/09/01 01:29:22;;;;;;;3.80;2.95;;;;;;;;;;5002825;28;20214;-75
2023/09/01 01:31:49;;;;;;;5.38;3.33;;;;;;;;;;5008643;28;20227;-73
2023/09/01 01:34:30;;;;;;;6.00;3.22;;;;;;;;;;5010780;28;20253;-75
2023/09/01 01:37:02;;;;;;;4.18;2.90;;;;;;;;;;5009114;28;20226;-73
2023/09/01 01:39:33;;;;;;;4.47;3.42;;;;;;;;;;5000644;28;20210;-72
2023/09/01 01:42:03;;;;;;;4.78;3.20;;;;;;;;;;5012403;28;20219;-74
2023/09/01 01:44:35;;;;;;;6.18;3.55;;;;;;;;;;5006011;28;20207;-73
2023/09/01 01:47:03;;;;;;;5.53;3.20;;;;;;;;;;5005463;28;20302;-72
2023/09/01 01:49:30;;;;;;;4.72;3.15;;;;;;;;;;5005479;28;22793;-73
2023/09/01 01:51:58;;;;;;;4.03;3.17;;;;;;;;;;5026333;28;20229;-73
2023/09/01 01:54:29;;;;;;;6.95;3.33;;;;;;;;;;5014805;28;20726;-72
2023/09/01 01:56:56;;;;;;;5.20;3.10;;;;;;;;;;5009461;28;20426;-75
2023/09/01 01:59:23;;;;;;;4.00;2.75;;;;;;;;;;5007049;28;20199;-72
2023/09/01 02:01:51;;;;;;;4.45;2.65;;;;;;;;;;5011096;28;20739;-73
2023/09/01 02:04:18;;;;;;;3.75;2.58;;;;;;;;;;5012791;28;20203;-74
2023/09/01 02:06:45;;;;;;;4.65;2.83;;;;;;;;;;5016840;28;20214;-72
2023/09/01 02:09:14;;;;;;;3.63;2.97;;;;;;;;;;5012899;28;20660;-75
2023/09/01 02:11:42;;;;;;;7.20;3.00;;;;;;;;;;5005881;28;20226;-74
2023/09/01 02:14:10;;;;;;;4.28;3.20;;;;;;;;;;5011268;28;20992;-75
2023/09/01 02:16:39;;;;;;;3.65;2.95;;;;;;;;;;5011675;28;20316;-73
2023/09/01 02:19:09;;;;;;;5.20;2.70;;;;;;;;;;5010503;28;20198;-75
2023/09/01 02:21:39;;;;;;;5.00;2.50;;;;;;;;;;5014028;28;20230;-72
2023/09/01 02:24:06;;;;;;;4.65;2.70;;;;;;;;;;5008083;28;20565;-73
2023/09/01 02:26:34;;;;;;;3.85;2.50;;;;;;;;;;5001133;28;20210;-73
2023/09/01 02:29:03;;;;;;;3.88;2.75;;;;;;;;;;5008345;28;20293;-72
2023/09/01 02:31:30;;;;;;;5.03;2.72;;;;;;;;;;5009500;28;20317;-76
2023/09/01 02:33:57;;;;;;;3.97;2.58;;;;;;;;;;5010014;28;20273;-74
2023/09/01 02:36:26;;;;;;;2.85;2.50;;;;;;;;;;5005521;28;20230;-72
2023/09/01 02:38:54;;;;;;;7.07;2.92;;;;;;;;;;5005482;28;20203;-73
2023/09/01 02:41:22;;;;;;;4.20;2.80;;;;;;;;;;5002313;28;20231;-74
2023/09/01 02:43:50;;;;;;;3.13;2.83;;;;;;;;;;5007533;28;20207;-74
2023/09/01 02:46:17;;;;;;;3.15;2.55;;;;;;;;;;4999035;28;20211;-75
2023/09/01 02:48:45;;;;;;;2.65;2.45;;;;;;;;;;5008978;28;20334;-73
2023/09/01 02:51:12;;;;;;;5.00;2.42;;;;;;;;;;5006745;28;20242;-72
2023/09/01 02:53:40;;;;;;;4.88;2.55;;;;;;;;;;5013242;28;20218;-73
2023/09/01 02:56:07;;;;;;;4.38;2.50;;;;;;;;;;5006736;28;20580;-73
2023/09/01 02:58:35;;;;;;;3.92;2.42;;;;;;;;;;5009625;28;20233;-73
2023/09/01 03:01:09;;;;;;;6.00;2.47;;;;;;;;;;5025662;28;20218;-74
2023/09/01 03:03:37;;;;;;;3.17;2.58;;;;;;;;;;5005400;28;20206;-74
2023/09/01 03:06:08;;;;;;;3.95;2.70;;;;;;;;;;5008100;28;20233;-74
2023/09/01 03:08:36;;;;;;;2.75;2.55;;;;;;;;;;5010930;28;20205;-75
2023/09/01 03:11:03;;;;;;;4.85;2.50;;;;;;;;;;5003008;28;20236;-72
2023/09/01 03:13:31;;;;;;;4.25;3.00;;;;;;;;;;5020051;28;22060;-73
2023/09/01 03:15:59;;;;;;;5.97;2.55;;;;;;;;;;5002223;28;20325;-75
2023/09/01 03:18:26;;;;;;;6.45;3.13;;;;;;;;;;5006760;28;20345;-72
2023/09/01 03:20:55;;;;;;;3.28;2.55;;;;;;;;;;5013149;28;20624;-74
2023/09/01 03:23:22;;;;;;;4.10;2.55;;;;;;;;;;5009011;28;20266;-74
2023/09/01 03:25:56;;;;;;;3.35;2.47;;;;;;;;;;5009743;28;20205;-72
2023/09/01 03:28:24;;;;;;;5.05;2.95;;;;;;;;;;5007684;28;20329;-72
2023/09/01 03:30:51;;;;;;;3.58;2.58;;;;;;;;;;5002862;28;20940;-75
2023/09/01 03:33:19;;;;;;;3.05;2.75;;;;;;;;;;5007449;28;20214;-72
2023/09/01 03:35:46;;;;;;;6.63;2.63;;;;;;;;;;5005531;28;20211;-72
2023/09/01 03:38:13;;;;;;;3.33;2.60;;;;;;;;;;5002061;28;20218;-71
2023/09/01 03:40:41;;;;;;;3.45;2.42;;;;;;;;;;5005746;28;20311;-72
2023/09/01 03:43:08;;;;;;;3.97;2.63;;;;;;;;;;5023222;28;20214;-73
2023/09/01 03:45:36;;;;;;;4.68;2.63;;;;;;;;;;5000260;28;20199;-72
2023/09/01 03:48:03;;;;;;;3.88;2.70;;;;;;;;;;5011976;28;20273;-73
2023/09/01 03:50:31;;;;;;;3.90;3.00;;;;;;;;;;5005347;28;20284;-73
2023/09/01 03:52:58;;;;;;;2.95;2.60;;;;;;;;;;5006102;28;20210;-73
2023/09/01 03:55:25;;;;;;;4.35;2.65;;;;;;;;;;5002623;28;20214;-74
2023/09/01 03:57:53;;;;;;;2.90;2.60;;;;;;;;;;5016224;28;20223;-74
2023/09/01 04:00:22;;;;;;;3.58;2.30;;;;;;;;;;5004738;28;20238;-73
2023/09/01 04:02:49;;;;;;;5.78;2.80;;;;;;;;;;5009282;28;20291;-73
2023/09/01 04:05:16;;;;;;;3.42;2.28;;;;;;;;;;5008482;28;20344;-71
2023/09/01 04:07:44;;;;;;;3.60;2.53;;;;;;;;;;5028792;28;20213;-75
2023/09/01 04:10:11;;;;;;;4.30;2.50;;;;;;;;;;5015546;28;20262;-72
2023/09/01 04:12:39;;;;;;;4.35;2.30;;;;;;;;;;5019190;28;20211;-74
2023/09/01 04:15:06;;;;;;;4.15;2.40;;;;;;;;;;5015791;28;20700;-72
2023/09/01 04:17:34;;;;;;;3.42;2.35;;;;;;;;;;5004349;28;20234;-74
2023/09/01 04:20:01;;;;;;;4.32;2.50;;;;;;;;;;5003480;28;20553;-73
2023/09/01 04:22:29;;;;;;;3.45;2.55;;;;;;;;;;5001989;28;20300;-72
2023/09/01 04:24:57;;;;;;;3.97;2.47;;;;;;;;;;4999700;28;20575;-73
2023/09/01 04:27:24;;;;;;;2.40;2.20;;;;;;;;;;5003251;28;21429;-74
2023/09/01 04:29:51;;;;;;;2.70;2.30;;;;;;;;;;5010563;28;20203;-73
2023/09/01 04:32:36;;;;;;;3.97;2.33;;;;;;;;;;5014853;28;20289;-73
2023/09/01 04:35:04;;;;;;;4.20;2.50;;;;;;;;;;5009631;28;20223;-74
2023/09/01 04:37:32;;;;;;;3.72;2.67;;;;;;;;;;5016310;28;20350;-74
2023/09/01 04:39:59;;;;;;;2.22;2.08;;;;;;;;;;5009652;28;20665;-73
2023/09/01 04:42:26;;;;;;;4.13;2.17;;;;;;;;;;5023721;28;20207;-74
2023/09/01 04:44:54;;;;;;;3.47;2.25;;;;;;;;;;5013215;28;20199;-73
2023/09/01 04:47:21;;;;;;;2.70;1.90;;;;;;;;;;5012029;28;20642;-72
2023/09/01 04:49:48;;;;;;;2.10;1.90;;;;;;;;;;5007990;28;20203;-74
2023/09/01 04:52:15;;;;;;;2.88;2.15;;;;;;;;;;5009283;28;20215;-74
2023/09/01 04:54:47;;;;;;;2.30;2.10;;;;;;;;;;5028269;28;20203;-72
2023/09/01 04:57:15;;;;;;;2.10;1.90;;;;;;;;;;4999597;28;20230;-73
2023/09/01 04:59:45;;;;;;;3.38;1.77;;;;;;;;;;4997727;28;21480;-72
2023/09/01 05:02:12;;;;;;;3.63;1.80;;;;;;;;;;5011339;28;20221;-73
2023/09/01 05:04:39;;;;;;;3.00;1.90;;;;;;;;;;5003490;28;20203;-73
2023/09/01 05:07:06;;;;;;;2.58;2.00;;;;;;;;;;5007245;28;20199;-73
2023/09/01 05:09:34;;;;;;;3.95;2.15;;;;;;;;;;4998918;28;20214;-74
2023/09/01 05:12:01;;;;;;;2.20;2.00;;;;;;;;;;5002992;28;20261;-73
2023/09/01 05:14:29;;;;;;;4.22;2.13;;;;;;;;;;5004365;28;20320;-73
2023/09/01 05:16:56;;;;;;;5.13;2.20;;;;;;;;;;5008538;28;20210;-72
2023/09/01 05:19:24;;;;;;;2.20;2.00;;;;;;;;;;5006772;28;20211;-74
2023/09/01 05:21:51;;;;;;;2.20;1.88;;;;;;;;;;5009477;28;20223;-73
2023/09/01 05:24:18;;;;;;;3.15;2.08;;;;;;;;;;5005319;28;20684;-74
2023/09/01 05:26:46;;;;;;;2.72;1.80;;;;;;;;;;5005845;28;20191;-74
2023/09/01 05:29:13;;;;;;;2.17;1.80;;;;;;;;;;5002939;28;20218;-74
2023/09/01 05:31:40;;;;;;;2.30;2.10;;;;;;;;;;5006732;28;20226;-74
2023/09/01 05:34:07;;;;;;;2.03;1.75;;;;;;;;;;5003901;28;21202;-75
2023/09/01 05:36:36;;;;;;;1.98;1.63;;;;;;;;;;5008597;28;20646;-75
2023/09/01 05:39:03;;;;;;;2.08;1.70;;;;;;;;;;5013109;28;20605;-73
2023/09/01 05:41:31;;;;;;;1.55;1.45;;;;;;;;;;5005551;28;20317;-74
2023/09/01 05:43:58;;;;;;;2.60;1.70;;;;;;;;;;5002102;28;20206;-73
2023/09/01 05:46:25;;;;;;;1.70;1.60;;;;;;;;;;5016465;28;20206;-74
2023/09/01 05:48:53;;;;;;;2.03;1.83;;;;;;;;;;5005603;28;20891;-73
2023/09/01 05:51:20;;;;;;;1.48;1.30;;;;;;;;;;5005493;28;20985;-74
2023/09/01 05:53:47;;;;;;;1.75;1.50;;;;;;;;;;5003740;28;20214;-73
2023/09/01 05:56:16;;;;;;;3.15;1.40;;;;;;;;;;5010962;28;20602;-73
2023/09/01 05:58:43;;;;;;;1.33;1.23;;;;;;;;;;5011096;28;20253;-72
2023/09/01 06:01:10;;;;;;;2.00;1.52;;;;;;;;;;5002580;28;20606;-71
2023/09/01 06:03:38;;;;;;;1.42;1.33;;;;;;;;;;5001642;28;20199;-73
2023/09/01 06:06:06;;;;;;;1.58;1.30;;;;;;;;;;5009865;28;20203;-73
2023/09/01 06:08:34;;;;;;;1.88;1.50;;;;;;;;;;4998760;28;20212;-73
2023/09/01 06:11:12;;;;;;;2.45;1.40;;;;;;;;;;5006903;28;20219;-74
2023/09/01 06:13:39;;;;;;;1.65;1.55;;;;;;;;;;5007031;28;20219;-74
2023/09/01 06:16:06;;;;;;;2.22;1.52;;;;;;;;;;5004375;28;20203;-72
2023/09/01 06:18:34;;;;;;;2.33;1.60;;;;;;;;;;5014905;28;20210;-73
2023/09/01 06:21:01;;;;;;;1.65;1.40;;;;;;;;;;5018058;28;20222;-73
2023/09/01 06:23:28;;;;;;;2.58;1.33;;;;;;;;;;5006647;28;20210;-72
2023/09/01 06:25:56;;;;;;;1.58;1.35;;;;;;;;;;5009065;28;20208;-72
2023/09/01 06:28:26;;;;;;;3.53;1.50;;;;;;;;;;5006016;28;20736;-72
2023/09/01 06:30:53;;;;;;;2.40;1.50;;;;;;;;;;5012596;28;20229;-72
2023/09/01 06:33:20;;;;;;;1.98;1.63;;;;;;;;;;4998759;28;20265;-72
2023/09/01 06:35:48;;;;;;;2.10;1.30;;;;;;;;;;5010343;28;20288;-73
2023/09/01 06:38:15;;;;;;;1.33;1.25;;;;;;;;;;5007041;28;20223;-72
2023/09/01 06:40:43;;;;;;;3.38;1.42;;;;;;;;;;5006243;28;20233;-73
2023/09/01 06:43:11;;;;;;;2.05;1.10;;;;;;;;;;5011368;28;20365;-72
2023/09/01 06:45:38;;;;;;;2.20;1.30;;;;;;;;;;5014633;28;20260;-72
2023/09/01 06:48:05;;;;;;;0.98;0.98;;;;;;;;;;5009137;28;20202;-72
2023/09/01 06:50:33;;;;;;;1.27;1.15;;;;;;;;;;5005933;28;20680;-73
2023/09/01 06:53:01;;;;;;;2.55;1.40;;;;;;;;;;5003128;28;20210;-72
2023/09/01 06:55:28;;;;;;;1.20;1.17;;;;;;;;;;5001832;28;20240;-72
2023/09/01 06:57:55;;;;;;;2.60;1.33;;;;;;;;;;4998722;28;20238;-74
2023/09/01 07:00:23;;;;;;;1.40;1.30;;;;;;;;;;5007324;28;20230;-71
2023/09/01 07:02:51;;;;;;;2.15;1.40;;;;;;;;;;5002790;28;20253;-73
2023/09/01 07:05:19;;;;;;;1.27;1.17;;;;;;;;;;4983365;28;20559;-73
2023/09/01 07:07:46;;;;;;;1.95;1.30;;;;;;;;;;4991473;28;20219;-71
2023/09/01 07:10:16;;;;;;;1.45;1.35;;;;;;;;;;4993109;28;20317;-73
2023/09/01 07:12:44;;;;;;;2.15;1.48;;;;;;;;;;4986685;28;20214;-73
2023/09/01 07:15:12;;;;;;;1.52;1.40;;;;;;;;;;4985503;28;20207;-72
2023/09/01 07:17:42;;;;;;;2.58;1.83;;;;;;;;;;4994699;28;20257;-75
2023/09/01 07:20:10;;;;;;;4.05;3.20;;;;;;;;;;5008809;28;20249;-71
2023/09/01 07:22:38;;;;;;;2.50;2.30;;;;;;;;;;5004657;28;21711;-71
2023/09/01 07:25:09;;;;;;;2.80;2.20;;;;;;;;;;5010862;28;20872;-72
2023/09/01 07:27:38;;;;;;;3.28;2.28;;;;;;;;;;5004125;28;20203;-72
2023/09/01 07:30:07;;;;;;;2.30;2.13;;;;;;;;;;5004095;28;20251;-73
2023/09/01 07:32:37;;;;;;;2.08;1.48;;;;;;;;;;5003278;28;20281;-72
2023/09/01 07:35:09;;;;;;;2.63;1.55;;;;;;;;;;5017928;28;20213;-72
2023/09/01 07:37:38;;;;;;;1.98;1.30;;;;;;;;;;5012522;28;20316;-72
2023/09/01 07:40:08;;;;;;;2.13;1.40;;;;;;;;;;5014466;28;20230;-72
2023/09/01 07:42:38;;;;;;;2.03;1.17;;;;;;;;;;5023036;28;20324;-72
2023/09/01 07:45:05;;;;;;;2.58;1.55;;;;;;;;;;5002463;28;20214;-73
2023/09/01 07:47:34;;;;;;;2.25;1.20;;;;;;;;;;4994842;28;20337;-73
2023/09/01 07:50:03;;;;;;;1.55;1.40;;;;;;;;;;5000076;28;20231;-72
2023/09/01 07:52:31;;;;;;;2.35;1.40;;;;;;;;;;5003675;28;20214;-72
2023/09/01 07:55:00;;;;;;;1.42;1.23;;;;;;;;;;5000675;28;20209;-72
2023/09/01 07:57:28;;;;;;;2.65;1.30;;;;;;;;;;5008146;28;20213;-73
2023/09/01 07:59:57;;;;;;;2.25;1.45;;;;;;;;;;5002693;28;20218;-72
2023/09/01 08:02:28;;;;;;;1.65;1.00;;;;;;;;;;4993128;28;20204;-72
2023/09/01 08:04:57;;;;;;;1.25;1.20;;;;;;;;;;5000098;28;20210;-72
2023/09/01 08:07:28;;;;;;;1.45;1.35;;;;;;;;;;5013572;28;20203;-72
2023/09/01 08:09:57;;;;;;;1.55;1.33;;;;;;;;;;5001889;28;20207;-72
2023/09/01 08:12:29;;;;;;;3.13;1.25;;;;;;;;;;4999313;28;20212;-72
2023/09/01 08:14:57;;;;;;;1.52;1.40;;;;;;;;;;5008744;28;20257;-72
2023/09/01 08:17:25;;;;;;;2.05;1.50;;;;;;;;;;5004781;28;20225;-71
2023/09/01 08:19:55;;;;;;;1.48;1.38;;;;;;;;;;5005963;28;20585;-72
2023/09/01 08:22:23;;;;;;;1.50;1.40;;;;;;;;;;4998409;28;20210;-72
2023/09/01 08:24:52;;;;;;;2.30;1.90;;;;;;;;;;5001184;28;20211;-72
2023/09/01 08:27:20;;;;;;;1.13;1.13;;;;;;;;;;5000382;28;20219;-73
2023/09/01 08:29:50;;;;;;;1.67;1.58;;;;;;;;;;5007835;28;20378;-72
2023/09/01 08:32:21;;;;;;;1.95;1.50;;;;;;;;;;4998511;28;20306;-72
2023/09/01 08:34:50;;;;;;;2.88;1.38;;;;;;;;;;4999935;28;20210;-72
2023/09/01 08:37:20;;;;;;;1.27;1.20;;;;;;;;;;5002941;28;20933;-72
2023/09/01 08:39:49;;;;;;;1.95;1.20;;;;;;;;;;5009282;28;20238;-76
2023/09/01 08:42:17;;;;;;;1.33;1.08;;;;;;;;;;4996820;28;20210;-77
2023/09/01 08:44:46;;;;;;;1.73;1.20;;;;;;;;;;4996982;28;20653;-76
2023/09/01 08:47:14;;;;;;;1.30;1.13;;;;;;;;;;4995925;28;20210;-76
2023/09/01 08:49:42;;;;;;;1.80;1.10;;;;;;;;;;4997605;28;20791;-76
2023/09/01 08:52:10;;;;;;;1.65;1.00;;;;;;;;;;4980351;28;20211;-74
2023/09/01 08:54:38;;;;;;;2.05;1.42;;;;;;;;;;4990623;28;20206;-75
2023/09/01 08:57:06;;;;;;;1.05;1.02;;;;;;;;;;4999766;28;20207;-75
2023/09/01 08:59:35;;;;;;;2.13;1.00;;;;;;;;;;4993617;28;20230;-75
2023/09/01 09:02:07;;;;;;;1.20;1.10;;;;;;;;;;5018039;28;20227;-77
2023/09/01 09:04:35;;;;;;;1.13;1.02;;;;;;;;;;4991500;28;20211;-76
2023/09/01 09:07:12;;;;;;;1.10;1.05;;;;;;;;;;4985925;28;20221;-71
2023/09/01 09:09:53;;;;;;;1.30;1.00;;;;;;;;;;4993385;28;20230;-73
2023/09/01 09:12:24;;;;;;;1.42;1.23;;;;;;;;;;4991834;28;20198;-72
2023/09/01 09:14:52;;;;;;;1.70;1.15;;;;;;;;;;5000928;28;20211;-72
2023/09/01 09:17:39;;;;;;;1.30;1.20;;;;;;;;;;5004414;28;20203;-72
2023/09/01 09:20:07;;;;;;;1.13;1.13;;;;;;;;;;5004526;28;20245;-72
2023/09/01 09:22:49;;;;;;;1.38;1.30;;;;;;;;;;5004577;28;20338;-71
2023/09/01 09:25:37;;;;;;;1.92;1.00;;;;;;;;;;5009864;28;20203;-72
2023/09/01 09:28:16;;;;;;;0.85;0.85;;;;;;;;;;5012406;28;20270;-72
2023/09/01 09:30:50;;;;;;;1.23;1.10;;;;;;;;;;5016003;28;20226;-73
2023/09/01 09:33:27;;;;;;;1.67;1.10;;;;;;;;;;5005224;28;21553;-73
2023/09/01 09:35:55;;;;;;;1.27;1.17;;;;;;;;;;5007092;28;21184;-71
2023/09/01 09:38:22;;;;;;;2.90;0.95;;;;;;;;;;5014416;28;20578;-72
2023/09/01 09:40:57;;;;;;;1.50;1.10;;;;;;;;;;5008267;28;20223;-72
2023/09/01 09:43:24;;;;;;;1.00;0.90;;;;;;;;;;5013770;28;20206;-74
2023/09/01 09:45:52;;;;;;;1.48;1.15;;;;;;;;;;5005008;28;20206;-72
2023/09/01 09:48:20;;;;;;;3.80;0.85;;;;;;;;;;5012326;28;20212;-73
2023/09/01 09:50:51;;;;;;;1.13;1.00;;;;;;;;;;5007870;28;20850;-74
2023/09/01 09:53:22;;;;;;;0.85;0.85;;;;;;;;;;5000911;28;20199;-71
2023/09/01 09:55:53;;;;;;;3.83;1.08;;;;;;;;;;5004932;28;20207;-72
2023/09/01 09:58:24;;;;;;;1.25;1.10;;;;;;;;;;4999994;28;20289;-73
2023/09/01 10:00:51;;;;;;;1.00;1.00;;;;;;;;;;5004720;28;20226;-72
2023/09/01 10:03:23;;;;;;;1.08;1.00;;;;;;;;;;5012100;28;20269;-71
2023/09/01 10:05:52;;;;;;;1.08;1.02;;;;;;;;;;5006726;28;20217;-72
2023/09/01 10:08:20;;;;;;;1.25;1.10;;;;;;;;;;5006524;28;20633;-72
2023/09/01 10:10:49;;;;;;;2.30;1.10;;;;;;;;;;5009187;28;20289;-72
2023/09/01 10:13:16;;;;;;;1.10;1.00;;;;;;;;;;5007193;28;20281;-72
2023/09/01 10:15:44;;;;;;;1.65;1.13;;;;;;;;;;5009714;28;20206;-72
2023/09/01 10:18:11;;;;;;;2.47;1.20;;;;;;;;;;4985437;28;20207;-70
2023/09/01 10:20:46;;;;;;;1.08;1.00;;;;;;;;;;4999733;28;20227;-71
2023/09/01 10:23:13;;;;;;;1.63;1.10;;;;;;;;;;4979891;28;24570;-72
2023/09/01 10:25:41;;;;;;;1.15;0.90;;;;;;;;;;4990240;28;21496;-71
2023/09/01 10:28:10;;;;;;;1.33;0.90;;;;;;;;;;4987226;28;20222;-71
2023/09/01 10:30:39;;;;;;;0.80;0.80;;;;;;;;;;4995736;28;20230;-72
2023/09/01 10:33:07;;;;;;;1.70;0.80;;;;;;;;;;4990682;28;21389;-70
2023/09/01 10:35:38;;;;;;;1.15;0.95;;;;;;;;;;4997136;28;20257;-73
2023/09/01 10:38:09;;;;;;;1.58;1.08;;;;;;;;;;4995706;28;20207;-71
2023/09/01 10:40:40;;;;;;;0.80;0.80;;;;;;;;;;4992721;28;20439;-73
2023/09/01 10:43:08;;;;;;;0.80;0.80;;;;;;;;;;4984483;28;20211;-71
2023/09/01 10:45:36;;;;;;;0.80;0.80;;;;;;;;;;4986848;28;20206;-71
2023/09/01 10:48:05;;;;;;;1.02;0.90;;;;;;;;;;4997506;28;21359;-74
2023/09/01 10:50:35;;;;;;;0.65;0.65;;;;;;;;;;4996311;28;20350;-74
2023/09/01 10:53:22;;;;;;;0.95;0.90;;;;;;;;;;4993932;28;20223;-72
2023/09/01 10:56:05;;;;;;;1.05;0.90;;;;;;;;;;5001456;28;20232;-73
2023/09/01 10:58:44;;;;;;;0.90;0.90;;;;;;;;;;4993696;28;20272;-72
2023/09/01 11:01:24;;;;;;;1.08;0.98;;;;;;;;;;4994712;28;20226;-71
2023/09/01 11:03:52;;;;;;;1.40;1.10;;;;;;;;;;5010333;28;20217;-71
2023/09/01 11:06:20;;;;;;;1.00;1.00;;;;;;;;;;4994395;28;20215;-74
2023/09/01 11:08:58;;;;;;;1.23;1.13;;;;;;;;;;5002946;28;20222;-71
2023/09/01 11:11:25;;;;;;;2.97;1.10;;;;;;;;;;5006005;28;20238;-72
2023/09/01 11:13:54;;;;;;;1.92;1.20;;;;;;;;;;5004973;28;20211;-72
2023/09/01 11:16:21;;;;;;;1.30;1.15;;;;;;;;;;5002263;28;20735;-72
2023/09/01 11:18:58;;;;;;;0.95;0.95;;;;;;;;;;5013978;28;20353;-71
2023/09/01 11:21:26;;;;;;;1.20;1.10;;;;;;;;;;5011650;28;20222;-71
2023/09/01 11:24:00;;;;;;;1.45;0.85;;;;;;;;;;5009127;28;20199;-72
2023/09/01 11:26:28;;;;;;;1.10;1.00;;;;;;;;;;5005538;28;20215;-71
2023/09/01 11:28:56;;;;;;;1.55;1.10;;;;;;;;;;5004599;28;20210;-74
2023/09/01 11:31:37;;;;;;;1.40;0.85;;;;;;;;;;5010764;28;20231;-71
2023/09/01 11:34:04;;;;;;;1.17;1.05;;;;;;;;;;5004399;28;20202;-72
2023/09/01 11:36:31;;;;;;;1.05;0.90;;;;;;;;;;5006537;28;20222;-71
2023/09/01 11:38:59;;;;;;;2.10;1.15;;;;;;;;;;5009500;28;20696;-73
2023/09/01 11:41:27;;;;;;;0.88;0.88;;;;;;;;;;5019103;28;20233;-72
2023/09/01 11:43:55;;;;;;;2.65;1.25;;;;;;;;;;5010904;28;20296;-70
2023/09/01 11:46:32;;;;;;;3.90;2.08;;;;;;;;;;5018161;28;20673;-71
2023/09/01 11:49:01;;;;;;;1.17;1.10;;;;;;;;;;4998231;28;20292;-73
2023/09/01 11:51:33;;;;;;;1.92;1.08;;;;;;;;;;5009443;28;20235;-72
2023/09/01 11:54:02;;;;;;;1.25;1.15;;;;;;;;;;5007653;28;20252;-72
2023/09/01 11:56:29;;;;;;;0.90;0.90;;;;;;;;;;5006142;28;20203;-71
2023/09/01 11:58:58;;;;;;;1.80;1.70;;;;;;;;;;5006368;28;20214;-72
2023/09/01 12:01:32;;;;;;;1.02;1.00;;;;;;;;;;5001054;28;20223;-71
2023/09/01 12:04:06;;;;;;;2.15;1.20;;;;;;;;;;4994144;28;20214;-73
2023/09/01 12:06:38;;;;;;;1.40;1.30;;;;;;;;;;5006116;28;20479;-71
2023/09/01 12:09:13;;;;;;;2.55;1.23;;;;;;;;;;5004047;28;20264;-72
2023/09/01 12:11:53;;;;;;;2.05;1.35;;;;;;;;;;5006323;28;21422;-72
2023/09/01 12:14:24;;;;;;;1.52;1.42;;;;;;;;;;5006916;28;20214;-73
2023/09/01 12:16:53;;;;;;;1.38;1.20;;;;;;;;;;5006915;28;20913;-73
2023/09/01 12:19:25;;;;;;;2.72;1.13;;;;;;;;;;5008272;28;20688;-74
2023/09/01 12:21:53;;;;;;;2.30;1.10;;;;;;;;;;5014447;28;20837;-71
2023/09/01 12:24:21;;;;;;;1.20;1.08;;;;;;;;;;5017059;28;20717;-72
2023/09/01 12:26:49;;;;;;;1.10;1.00;;;;;;;;;;5002468;28;20213;-73
2023/09/01 12:29:16;;;;;;;1.45;1.25;;;;;;;;;;5009479;28;20210;-72
2023/09/01 12:31:44;;;;;;;1.08;0.98;;;;;;;;;;5014940;28;20249;-71
2023/09/01 12:34:11;;;;;;;1.20;1.10;;;;;;;;;;5011421;28;20214;-71
2023/09/01 12:36:39;;;;;;;1.63;1.08;;;;;;;;;;5005723;28;20284;-72
2023/09/01 12:39:06;;;;;;;1.20;1.10;;;;;;;;;;5009389;28;20309;-74
2023/09/01 12:41:33;;;;;;;1.40;1.17;;;;;;;;;;4999752;28;20229;-73
2023/09/01 12:44:01;;;;;;;1.17;1.10;;;;;;;;;;4995175;28;20217;-72
2023/09/01 12:46:28;;;;;;;1.70;1.50;;;;;;;;;;5013948;28;20724;-72
2023/09/01 12:48:56;;;;;;;1.40;1.30;;;;;;;;;;5031437;28;20876;-72
2023/09/01 12:51:23;;;;;;;1.30;1.02;;;;;;;;;;5017415;28;20290;-71
2023/09/01 12:53:52;;;;;;;0.93;0.93;;;;;;;;;;5016297;28;20203;-72
2023/09/01 12:56:19;;;;;;;2.33;1.08;;;;;;;;;;5001566;28;20203;-71
2023/09/01 12:58:47;;;;;;;0.93;0.93;;;;;;;;;;5014522;28;20249;-71
2023/09/01 13:01:14;;;;;;;1.20;1.10;;;;;;;;;;5009108;28;20651;-71
2023/09/01 13:03:42;;;;;;;1.33;1.23;;;;;;;;;;5011818;28;20408;-72
2023/09/01 13:06:10;;;;;;;1.08;0.98;;;;;;;;;;5011290;28;20245;-74
2023/09/01 13:08:37;;;;;;;1.52;1.15;;;;;;;;;;5009437;28;20661;-72
2023/09/01 13:11:11;;;;;;;1.33;1.20;;;;;;;;;;5011450;28;20222;-72
2023/09/01 13:13:39;;;;;;;2.35;1.30;;;;;;;;;;5009134;28;20215;-73
2023/09/01 13:16:09;;;;;;;1.35;1.10;;;;;;;;;;5003462;28;20207;-71
2023/09/01 13:18:41;;;;;;;2.53;1.20;;;;;;;;;;5011468;28;20289;-73
2023/09/01 13:21:10;;;;;;;1.58;1.10;;;;;;;;;;5000053;28;21488;-71
2023/09/01 13:23:38;;;;;;;1.33;1.23;;;;;;;;;;4995341;28;20741;-72
2023/09/01 13:26:06;;;;;;;1.38;1.17;;;;;;;;;;5008522;28;20217;-72
2023/09/01 13:28:34;;;;;;;1.15;1.00;;;;;;;;;;5010475;28;20214;-73
2023/09/01 13:31:01;;;;;;;1.15;1.05;;;;;;;;;;5013994;28;20583;-71
2023/09/01 13:33:28;;;;;;;1.42;1.33;;;;;;;;;;5008628;28;20794;-74
2023/09/01 13:35:56;;;;;;;2.22;1.27;;;;;;;;;;5015389;28;20203;-72
2023/09/01 13:38:24;;;;;;;3.22;1.20;;;;;;;;;;5004086;28;20199;-72
2023/09/01 13:40:57;;;;;;;1.33;1.05;;;;;;;;;;5011362;28;20249;-72
2023/09/01 13:43:26;;;;;;;1.20;1.10;;;;;;;;;;5005064;28;20207;-73
2023/09/01 13:45:55;;;;;;;1.48;1.30;;;;;;;;;;5009608;28;20215;-72
2023/09/01 13:48:22;;;;;;;1.77;1.40;;;;;;;;;;5011339;28;20203;-72
2023/09/01 13:50:50;;;;;;;1.48;1.38;;;;;;;;;;5020936;28;20241;-73
2023/09/01 13:53:17;;;;;;;1.25;1.17;;;;;;;;;;4999961;28;20211;-72
2023/09/01 13:55:44;;;;;;;1.80;1.45;;;;;;;;;;5013263;28;20203;-72
2023/09/01 13:58:12;;;;;;;1.50;1.23;;;;;;;;;;5010124;28;21064;-73
2023/09/01 14:00:39;;;;;;;1.40;1.23;;;;;;;;;;4999970;28;20328;-73
2023/09/01 14:03:06;;;;;;;1.80;1.23;;;;;;;;;;5001481;28;20199;-74
2023/09/01 14:05:33;;;;;;;2.40;1.67;;;;;;;;;;4995335;28;20199;-71
2023/09/01 14:08:00;;;;;;;2.80;1.52;;;;;;;;;;5002797;28;20208;-75
2023/09/01 14:10:28;;;;;;;4.80;3.05;;;;;;;;;;5006080;28;20587;-76
2023/09/01 14:12:55;;;;;;;1.52;1.42;;;;;;;;;;5001460;28;20233;-73
2023/09/01 14:15:22;;;;;;;1.30;1.20;;;;;;;;;;4999676;28;20494;-71
2023/09/01 14:17:50;;;;;;;2.28;1.45;;;;;;;;;;4999922;28;20211;-71
2023/09/01 14:20:17;;;;;;;1.38;1.27;;;;;;;;;;4997932;28;20239;-73
2023/09/01 14:22:45;;;;;;;1.80;1.30;;;;;;;;;;4999094;28;20828;-73
2023/09/01 14:25:12;;;;;;;1.70;1.52;;;;;;;;;;5001271;28;20295;-71
2023/09/01 14:27:41;;;;;;;1.20;1.10;;;;;;;;;;5001021;28;20262;-74
2023/09/01 14:30:09;;;;;;;3.72;2.05;;;;;;;;;;5001046;28;20711;-74
2023/09/01 14:32:36;;;;;;;2.30;1.50;;;;;;;;;;5004096;28;20199;-73
2023/09/01 14:35:04;;;;;;;1.75;1.60;;;;;;;;;;4990975;28;20281;-75
2023/09/01 14:37:31;;;;;;;1.60;1.30;;;;;;;;;;5006545;28;20336;-72
2023/09/01 14:39:59;;;;;;;1.77;1.40;;;;;;;;;;5009339;28;20235;-74
2023/09/01 14:42:26;;;;;;;1.27;1.20;;;;;;;;;;5006933;28;20580;-73
2023/09/01 14:44:54;;;;;;;1.10;1.10;;;;;;;;;;4993858;28;20258;-72
2023/09/01 14:47:21;;;;;;;1.40;1.30;;;;;;;;;;4994272;28;20207;-72
2023/09/01 14:49:48;;;;;;;1.38;1.27;;;;;;;;;;5006318;28;20692;-72
2023/09/01 14:52:16;;;;;;;1.33;1.23;;;;;;;;;;5000886;28;20870;-74